sensor_id;sensor_type;location;lat;lon;timestamp;temperature;humidity
9486;DHT22;4781;48.776;9.200;2024-03-08T00:00:12;4.00;99.90
9486;DHT22;4781;48.776;9.200;2024-03-08T00:02:42;4.00;99.90
9486;DHT22;4781;48.776;9.200;2024-03-08T00:05:11;3.90;99.90
9486;DHT22;4781;48.776;9.200;2024-03-08T00:07:40;3.90;99.90
9486;DHT22;4781;48.776;9.200;2024-03-08T00:10:11;3.90;99.90
9486;DHT22;4781;48.776;9.200;2024-03-08T00:12:44;3.90;99.90
9486;DHT22;4781;48.776;9.200;2024-03-08T00:15:15;3.90;99.90
9486;DHT22;4781;48.776;9.200;2024-03-08T00:17:44;3.80;99.90
9486;DHT22;4781;48.776;9.200;2024-03-08T00:20:13;3.80;99.90
9486;DHT22;4781;48.776;9.200;2024-03-08T00:22:43;3.80;99.90
9486;DHT22;4781;48.776;9.200;2024-03-08T00:25:12;3.80;99.90
9486;DHT22;4781;48.776;9.200;2024-03-08T00:27:41;3.70;99.90
9486;DHT22;4781;48.776;9.200;2024-03-08T00:30:10;3.70;99.90
9486;DHT22;4781;48.776;9.200;2024-03-08T00:32:40;3.60;99.90
9486;DHT22;4781;48.776;9.200;2024-03-08T00:35:09;3.60;99.90
9486;DHT22;4781;48.776;9.200;2024-03-08T00:37:38;3.60;99.90
9486;DHT22;4781;48.776;9.200;2024-03-08T00:40:08;3.50;99.90
9486;DHT22;4781;48.776;9.200;2024-03-08T00:42:37;3.50;99.90
9486;DHT22;4781;48.776;9.200;2024-03-08T00:45:07;3.50;99.90
9486;DHT22;4781;48.776;9.200;2024-03-08T00:47:36;3.40;99.90
9486;DHT22;4781;48.776;9.200;2024-03-08T00:50:05;3.40;99.90
9486;DHT22;4781;48.776;9.200;2024-03-08T00:52:34;3.40;99.90
9486;DHT22;4781;48.776;9.200;2024-03-08T00:55:04;3.40;99.90
9486;DHT22;4781;48.776;9.200;2024-03-08T00:57:32;3.40;99.90
9486;DHT22;4781;48.776;9.200;2024-03-08T01:00:03;3.30;99.90
9486;DHT22;4781;48.776;9.200;2024-03-08T01:02:34;3.30;99.90
9486;DHT22;4781;48.776;9.200;2024-03-08T01:05:03;3.30;99.90
9486;DHT22;4781;48.776;9.200;2024-03-08T01:07:34;3.20;99.90
9486;DHT22;4781;48.776;9.200;2024-03-08T01:10:04;3.20;99.90
9486;DHT22;4781;48.776;9.200;2024-03-08T01:12:34;3.20;99.90
9486;DHT22;4781;48.776;9.200;2024-03-08T01:15:03;3.20;99.90
9486;DHT22;4781;48.776;9.200;2024-03-08T01:17:32;3.10;99.90
9486;DHT22;4781;48.776;9.200;2024-03-08T01:20:00;3.10;99.90
9486;DHT22;4781;48.776;9.200;2024-03-08T01:22:29;3.10;99.90
9486;DHT22;4781;48.776;9.200;2024-03-08T01:24:57;3.00;99.90
9486;DHT22;4781;48.776;9.200;2024-03-08T01:27:26;3.00;99.90
9486;DHT22;4781;48.776;9.200;2024-03-08T01:29:54;3.00;99.90
9486;DHT22;4781;48.776;9.200;2024-03-08T01:32:23;2.90;99.90
9486;DHT22;4781;48.776;9.200;2024-03-08T01:34:51;2.90;99.90
9486;DHT22;4781;48.776;9.200;2024-03-08T01:37:20;2.90;99.90
9486;DHT22;4781;48.776;9.200;2024-03-08T01:39:48;2.90;99.90
9486;DHT22;4781;48.776;9.200;2024-03-08T01:42:16;2.80;99.90
9486;DHT22;4781;48.776;9.200;2024-03-08T01:44:45;2.80;99.90
9486;DHT22;4781;48.776;9.200;2024-03-08T01:47:13;2.80;99.90
9486;DHT22;4781;48.776;9.200;2024-03-08T01:49:42;2.80;99.90
9486;DHT22;4781;48.776;9.200;2024-03-08T01:52:10;2.80;99.90
9486;DHT22;4781;48.776;9.200;2024-03-08T01:54:39;2.70;99.90
9486;DHT22;4781;48.776;9.200;2024-03-08T01:59:37;2.60;99.90
9486;DHT22;4781;48.776;9.200;2024-03-08T02:02:07;2.60;99.90
9486;DHT22;4781;48.776;9.200;2024-03-08T02:04:37;2.60;99.90
9486;DHT22;4781;48.776;9.200;2024-03-08T02:07:05;2.60;99.90
9486;DHT22;4781;48.776;9.200;2024-03-08T02:09:34;2.50;99.90
9486;DHT22;4781;48.776;9.200;2024-03-08T02:12:02;2.50;99.90
9486;DHT22;4781;48.776;9.200;2024-03-08T02:14:31;2.50;99.90
9486;DHT22;4781;48.776;9.200;2024-03-08T02:17:02;2.50;99.90
9486;DHT22;4781;48.776;9.200;2024-03-08T02:19:31;2.50;99.90
9486;DHT22;4781;48.776;9.200;2024-03-08T02:22:00;2.50;99.90
9486;DHT22;4781;48.776;9.200;2024-03-08T02:24:31;2.50;99.90
9486;DHT22;4781;48.776;9.200;2024-03-08T02:27:00;2.50;99.90
9486;DHT22;4781;48.776;9.200;2024-03-08T02:29:29;2.50;99.90
9486;DHT22;4781;48.776;9.200;2024-03-08T02:31:58;2.50;99.90
9486;DHT22;4781;48.776;9.200;2024-03-08T02:34:27;2.50;99.90
9486;DHT22;4781;48.776;9.200;2024-03-08T02:36:57;2.50;99.90
9486;DHT22;4781;48.776;9.200;2024-03-08T02:39:25;2.50;99.90
9486;DHT22;4781;48.776;9.200;2024-03-08T02:41:54;2.50;99.90
9486;DHT22;4781;48.776;9.200;2024-03-08T02:44:22;2.50;99.90
9486;DHT22;4781;48.776;9.200;2024-03-08T02:46:51;2.50;99.90
9486;DHT22;4781;48.776;9.200;2024-03-08T02:49:21;2.50;99.90
9486;DHT22;4781;48.776;9.200;2024-03-08T02:51:50;2.50;99.90
9486;DHT22;4781;48.776;9.200;2024-03-08T02:54:18;2.50;99.90
9486;DHT22;4781;48.776;9.200;2024-03-08T02:56:47;2.50;99.90
9486;DHT22;4781;48.776;9.200;2024-03-08T02:59:17;2.40;99.90
9486;DHT22;4781;48.776;9.200;2024-03-08T03:01:45;2.50;99.90
9486;DHT22;4781;48.776;9.200;2024-03-08T03:04:14;2.50;99.90
9486;DHT22;4781;48.776;9.200;2024-03-08T03:06:42;2.40;99.90
9486;DHT22;4781;48.776;9.200;2024-03-08T03:09:10;2.50;99.90
9486;DHT22;4781;48.776;9.200;2024-03-08T03:11:44;2.50;99.90
9486;DHT22;4781;48.776;9.200;2024-03-08T03:14:12;2.40;99.90
9486;DHT22;4781;48.776;9.200;2024-03-08T03:16:42;2.40;99.90
9486;DHT22;4781;48.776;9.200;2024-03-08T03:19:12;2.50;99.90
9486;DHT22;4781;48.776;9.200;2024-03-08T03:21:41;2.40;99.90
9486;DHT22;4781;48.776;9.200;2024-03-08T03:24:10;2.40;99.90
9486;DHT22;4781;48.776;9.200;2024-03-08T03:26:39;2.40;99.90
9486;DHT22;4781;48.776;9.200;2024-03-08T03:29:07;2.40;99.90
9486;DHT22;4781;48.776;9.200;2024-03-08T03:31:37;2.40;99.90
9486;DHT22;4781;48.776;9.200;2024-03-08T03:34:06;2.40;99.90
9486;DHT22;4781;48.776;9.200;2024-03-08T03:36:35;2.40;99.90
9486;DHT22;4781;48.776;9.200;2024-03-08T03:39:04;2.40;99.90
9486;DHT22;4781;48.776;9.200;2024-03-08T03:41:34;2.40;99.90
9486;DHT22;4781;48.776;9.200;2024-03-08T03:44:03;2.40;99.90
9486;DHT22;4781;48.776;9.200;2024-03-08T03:46:33;2.40;99.90
9486;DHT22;4781;48.776;9.200;2024-03-08T03:49:02;2.30;99.90
9486;DHT22;4781;48.776;9.200;2024-03-08T03:51:30;2.30;99.90
9486;DHT22;4781;48.776;9.200;2024-03-08T03:53:59;2.30;99.90
9486;DHT22;4781;48.776;9.200;2024-03-08T03:56:29;2.30;99.90
9486;DHT22;4781;48.776;9.200;2024-03-08T03:58:57;2.30;99.90
9486;DHT22;4781;48.776;9.200;2024-03-08T04:01:26;2.30;99.90
9486;DHT22;4781;48.776;9.200;2024-03-08T04:03:55;2.30;99.90
9486;DHT22;4781;48.776;9.200;2024-03-08T04:06:23;2.30;99.90
9486;DHT22;4781;48.776;9.200;2024-03-08T04:08:52;2.30;99.90
9486;DHT22;4781;48.776;9.200;2024-03-08T04:11:20;2.20;99.90
9486;DHT22;4781;48.776;9.200;2024-03-08T04:13:48;2.20;99.90
9486;DHT22;4781;48.776;9.200;2024-03-08T04:16:17;2.20;99.90
9486;DHT22;4781;48.776;9.200;2024-03-08T04:18:45;2.20;99.90
9486;DHT22;4781;48.776;9.200;2024-03-08T04:21:14;2.10;99.90
9486;DHT22;4781;48.776;9.200;2024-03-08T04:23:42;2.10;99.90
9486;DHT22;4781;48.776;9.200;2024-03-08T04:26:11;2.10;99.90
9486;DHT22;4781;48.776;9.200;2024-03-08T04:28:40;2.10;99.90
9486;DHT22;4781;48.776;9.200;2024-03-08T04:31:08;2.10;99.90
9486;DHT22;4781;48.776;9.200;2024-03-08T04:33:37;2.10;99.90
9486;DHT22;4781;48.776;9.200;2024-03-08T04:36:05;2.00;99.90
9486;DHT22;4781;48.776;9.200;2024-03-08T04:38:34;2.00;99.90
9486;DHT22;4781;48.776;9.200;2024-03-08T04:41:03;2.00;99.90
9486;DHT22;4781;48.776;9.200;2024-03-08T04:43:31;2.00;99.90
9486;DHT22;4781;48.776;9.200;2024-03-08T04:46:00;2.00;99.90
9486;DHT22;4781;48.776;9.200;2024-03-08T04:48:30;2.00;99.90
9486;DHT22;4781;48.776;9.200;2024-03-08T04:50:58;2.00;99.90
9486;DHT22;4781;48.776;9.200;2024-03-08T04:53:27;2.00;99.90
9486;DHT22;4781;48.776;9.200;2024-03-08T04:55:56;2.00;99.90
9486;DHT22;4781;48.776;9.200;2024-03-08T04:58:24;1.90;99.90
9486;DHT22;4781;48.776;9.200;2024-03-08T05:00:52;1.90;99.90
9486;DHT22;4781;48.776;9.200;2024-03-08T05:03:21;1.90;99.90
9486;DHT22;4781;48.776;9.200;2024-03-08T05:05:51;1.90;99.90
9486;DHT22;4781;48.776;9.200;2024-03-08T05:08:19;1.90;99.90
9486;DHT22;4781;48.776;9.200;2024-03-08T05:10:48;1.90;99.90
9486;DHT22;4781;48.776;9.200;2024-03-08T05:13:16;1.80;99.90
9486;DHT22;4781;48.776;9.200;2024-03-08T05:15:49;1.90;99.90
9486;DHT22;4781;48.776;9.200;2024-03-08T05:18:18;1.90;99.90
9486;DHT22;4781;48.776;9.200;2024-03-08T05:20:46;1.80;99.90
9486;DHT22;4781;48.776;9.200;2024-03-08T05:23:14;1.80;99.90
9486;DHT22;4781;48.776;9.200;2024-03-08T05:25:43;1.80;99.90
9486;DHT22;4781;48.776;9.200;2024-03-08T05:28:11;1.80;99.90
9486;DHT22;4781;48.776;9.200;2024-03-08T05:30:40;1.80;99.90
9486;DHT22;4781;48.776;9.200;2024-03-08T05:33:08;1.80;99.90
9486;DHT22;4781;48.776;9.200;2024-03-08T05:35:37;1.80;99.90
9486;DHT22;4781;48.776;9.200;2024-03-08T05:38:06;1.80;99.90
9486;DHT22;4781;48.776;9.200;2024-03-08T05:40:35;1.80;99.90
9486;DHT22;4781;48.776;9.200;2024-03-08T05:43:03;1.80;99.90
9486;DHT22;4781;48.776;9.200;2024-03-08T05:45:31;1.80;99.90
9486;DHT22;4781;48.776;9.200;2024-03-08T05:48:00;1.80;99.90
9486;DHT22;4781;48.776;9.200;2024-03-08T05:50:29;1.80;99.90
9486;DHT22;4781;48.776;9.200;2024-03-08T05:52:58;1.80;99.90
9486;DHT22;4781;48.776;9.200;2024-03-08T05:55:26;1.80;99.90
9486;DHT22;4781;48.776;9.200;2024-03-08T05:57:56;1.80;99.90
9486;DHT22;4781;48.776;9.200;2024-03-08T06:00:24;1.70;99.90
9486;DHT22;4781;48.776;9.200;2024-03-08T06:02:53;1.70;99.90
9486;DHT22;4781;48.776;9.200;2024-03-08T06:05:22;1.80;99.90
9486;DHT22;4781;48.776;9.200;2024-03-08T06:07:51;1.80;99.90
9486;DHT22;4781;48.776;9.200;2024-03-08T06:10:20;1.80;99.90
9486;DHT22;4781;48.776;9.200;2024-03-08T06:12:48;1.80;99.90
9486;DHT22;4781;48.776;9.200;2024-03-08T06:15:19;1.80;99.90
9486;DHT22;4781;48.776;9.200;2024-03-08T06:17:48;1.80;99.90
9486;DHT22;4781;48.776;9.200;2024-03-08T06:20:16;1.80;99.90
9486;DHT22;4781;48.776;9.200;2024-03-08T06:22:45;1.80;99.90
9486;DHT22;4781;48.776;9.200;2024-03-08T06:25:13;1.80;99.90
9486;DHT22;4781;48.776;9.200;2024-03-08T06:27:42;1.80;99.90
9486;DHT22;4781;48.776;9.200;2024-03-08T06:30:13;1.90;99.90
9486;DHT22;4781;48.776;9.200;2024-03-08T06:32:42;1.90;99.90
9486;DHT22;4781;48.776;9.200;2024-03-08T06:35:11;1.90;99.90
9486;DHT22;4781;48.776;9.200;2024-03-08T06:37:39;1.90;99.90
9486;DHT22;4781;48.776;9.200;2024-03-08T06:40:09;1.90;99.90
9486;DHT22;4781;48.776;9.200;2024-03-08T06:42:40;1.90;99.90
9486;DHT22;4781;48.776;9.200;2024-03-08T06:45:09;1.90;99.90
9486;DHT22;4781;48.776;9.200;2024-03-08T06:47:39;1.90;99.90
9486;DHT22;4781;48.776;9.200;2024-03-08T06:50:08;1.90;99.90
9486;DHT22;4781;48.776;9.200;2024-03-08T06:52:38;2.00;99.90
9486;DHT22;4781;48.776;9.200;2024-03-08T06:55:09;2.00;99.90
9486;DHT22;4781;48.776;9.200;2024-03-08T06:57:40;2.10;99.90
9486;DHT22;4781;48.776;9.200;2024-03-08T07:00:09;2.10;99.90
9486;DHT22;4781;48.776;9.200;2024-03-08T07:02:43;2.10;99.90
9486;DHT22;4781;48.776;9.200;2024-03-08T07:05:15;2.10;99.90
9486;DHT22;4781;48.776;9.200;2024-03-08T07:07:43;2.10;99.90
9486;DHT22;4781;48.776;9.200;2024-03-08T07:10:13;2.20;99.90
9486;DHT22;4781;48.776;9.200;2024-03-08T07:12:43;2.30;99.90
9486;DHT22;4781;48.776;9.200;2024-03-08T07:15:12;2.30;99.90
9486;DHT22;4781;48.776;9.200;2024-03-08T07:17:41;2.40;99.90
9486;DHT22;4781;48.776;9.200;2024-03-08T07:20:11;2.40;99.90
9486;DHT22;4781;48.776;9.200;2024-03-08T07:22:42;2.40;99.90
9486;DHT22;4781;48.776;9.200;2024-03-08T07:25:10;2.50;99.90
9486;DHT22;4781;48.776;9.200;2024-03-08T07:27:52;2.50;99.90
9486;DHT22;4781;48.776;9.200;2024-03-08T07:30:26;2.60;99.90
9486;DHT22;4781;48.776;9.200;2024-03-08T07:33:14;2.60;99.90
9486;DHT22;4781;48.776;9.200;2024-03-08T07:35:43;2.70;99.90
9486;DHT22;4781;48.776;9.200;2024-03-08T07:38:13;2.70;99.90
9486;DHT22;4781;48.776;9.200;2024-03-08T07:40:43;2.70;99.90
9486;DHT22;4781;48.776;9.200;2024-03-08T07:43:11;2.80;99.90
9486;DHT22;4781;48.776;9.200;2024-03-08T07:45:40;2.80;99.90
9486;DHT22;4781;48.776;9.200;2024-03-08T07:48:08;2.80;99.90
9486;DHT22;4781;48.776;9.200;2024-03-08T07:50:41;2.90;99.90
9486;DHT22;4781;48.776;9.200;2024-03-08T07:53:09;2.90;99.90
9486;DHT22;4781;48.776;9.200;2024-03-08T07:55:38;3.00;99.90
9486;DHT22;4781;48.776;9.200;2024-03-08T07:58:08;3.00;99.90
9486;DHT22;4781;48.776;9.200;2024-03-08T08:00:37;3.10;99.90
9486;DHT22;4781;48.776;9.200;2024-03-08T08:03:05;3.20;99.90
9486;DHT22;4781;48.776;9.200;2024-03-08T08:05:35;3.10;99.90
9486;DHT22;4781;48.776;9.200;2024-03-08T08:08:07;3.10;99.90
9486;DHT22;4781;48.776;9.200;2024-03-08T08:10:37;3.20;99.90
9486;DHT22;4781;48.776;9.200;2024-03-08T08:13:06;3.20;99.90
9486;DHT22;4781;48.776;9.200;2024-03-08T08:15:34;3.20;99.90
9486;DHT22;4781;48.776;9.200;2024-03-08T08:18:03;3.30;99.90
9486;DHT22;4781;48.776;9.200;2024-03-08T08:20:32;3.30;99.90
9486;DHT22;4781;48.776;9.200;2024-03-08T08:23:00;3.40;99.90
9486;DHT22;4781;48.776;9.200;2024-03-08T08:25:29;3.40;99.90
9486;DHT22;4781;48.776;9.200;2024-03-08T08:27:59;3.40;99.90
9486;DHT22;4781;48.776;9.200;2024-03-08T08:30:29;3.30;99.90
9486;DHT22;4781;48.776;9.200;2024-03-08T08:32:59;3.40;99.90
9486;DHT22;4781;48.776;9.200;2024-03-08T08:35:28;3.50;99.90
9486;DHT22;4781;48.776;9.200;2024-03-08T08:37:57;3.50;99.90
9486;DHT22;4781;48.776;9.200;2024-03-08T08:40:25;3.50;99.90
9486;DHT22;4781;48.776;9.200;2024-03-08T08:42:54;3.60;99.90
9486;DHT22;4781;48.776;9.200;2024-03-08T08:45:24;3.60;99.90
9486;DHT22;4781;48.776;9.200;2024-03-08T08:47:52;3.60;99.90
9486;DHT22;4781;48.776;9.200;2024-03-08T08:50:21;3.70;99.90
9486;DHT22;4781;48.776;9.200;2024-03-08T08:52:50;3.70;99.90
9486;DHT22;4781;48.776;9.200;2024-03-08T08:55:18;3.70;99.90
9486;DHT22;4781;48.776;9.200;2024-03-08T08:57:53;3.80;99.90
9486;DHT22;4781;48.776;9.200;2024-03-08T09:00:22;3.80;99.90
9486;DHT22;4781;48.776;9.200;2024-03-08T09:02:52;3.80;99.90
9486;DHT22;4781;48.776;9.200;2024-03-08T09:05:22;3.80;99.90
9486;DHT22;4781;48.776;9.200;2024-03-08T09:07:51;3.90;99.90
9486;DHT22;4781;48.776;9.200;2024-03-08T09:10:19;3.90;99.90
9486;DHT22;4781;48.776;9.200;2024-03-08T09:12:48;3.80;99.90
9486;DHT22;4781;48.776;9.200;2024-03-08T09:15:16;3.80;99.90
9486;DHT22;4781;48.776;9.200;2024-03-08T09:17:45;3.70;99.90
9486;DHT22;4781;48.776;9.200;2024-03-08T09:20:15;3.70;99.90
9486;DHT22;4781;48.776;9.200;2024-03-08T09:22:44;3.80;99.90
9486;DHT22;4781;48.776;9.200;2024-03-08T09:25:15;3.90;99.90
9486;DHT22;4781;48.776;9.200;2024-03-08T09:27:44;4.00;99.90
9486;DHT22;4781;48.776;9.200;2024-03-08T09:30:13;4.00;99.90
9486;DHT22;4781;48.776;9.200;2024-03-08T09:32:41;4.00;99.90
9486;DHT22;4781;48.776;9.200;2024-03-08T09:35:10;4.00;99.90
9486;DHT22;4781;48.776;9.200;2024-03-08T09:37:38;4.00;99.90
9486;DHT22;4781;48.776;9.200;2024-03-08T09:40:26;4.00;99.90
9486;DHT22;4781;48.776;9.200;2024-03-08T09:42:54;4.00;99.90
9486;DHT22;4781;48.776;9.200;2024-03-08T09:45:25;4.10;99.90
9486;DHT22;4781;48.776;9.200;2024-03-08T09:47:55;4.10;99.90
9486;DHT22;4781;48.776;9.200;2024-03-08T09:50:24;4.10;99.90
9486;DHT22;4781;48.776;9.200;2024-03-08T09:52:55;4.20;99.90
9486;DHT22;4781;48.776;9.200;2024-03-08T09:55:25;4.20;99.90
9486;DHT22;4781;48.776;9.200;2024-03-08T09:57:56;4.20;99.90
9486;DHT22;4781;48.776;9.200;2024-03-08T10:00:45;4.30;99.90
9486;DHT22;4781;48.776;9.200;2024-03-08T10:03:14;4.30;99.90
9486;DHT22;4781;48.776;9.200;2024-03-08T10:05:42;4.40;99.90
9486;DHT22;4781;48.776;9.200;2024-03-08T10:08:11;4.50;99.90
9486;DHT22;4781;48.776;9.200;2024-03-08T10:10:40;4.50;99.90
9486;DHT22;4781;48.776;9.200;2024-03-08T10:13:10;4.60;99.90
9486;DHT22;4781;48.776;9.200;2024-03-08T10:15:40;4.60;99.90
9486;DHT22;4781;48.776;9.200;2024-03-08T10:18:10;4.70;99.90
9486;DHT22;4781;48.776;9.200;2024-03-08T10:20:38;4.60;99.90
9486;DHT22;4781;48.776;9.200;2024-03-08T10:23:07;4.70;99.90
9486;DHT22;4781;48.776;9.200;2024-03-08T10:25:36;4.70;99.90
9486;DHT22;4781;48.776;9.200;2024-03-08T10:28:05;4.80;99.90
9486;DHT22;4781;48.776;9.200;2024-03-08T10:30:34;4.80;99.90
9486;DHT22;4781;48.776;9.200;2024-03-08T10:33:03;4.90;99.90
9486;DHT22;4781;48.776;9.200;2024-03-08T10:35:31;5.00;99.90
9486;DHT22;4781;48.776;9.200;2024-03-08T10:38:01;5.00;99.90
9486;DHT22;4781;48.776;9.200;2024-03-08T10:40:33;5.10;99.90
9486;DHT22;4781;48.776;9.200;2024-03-08T10:43:03;5.20;99.90
9486;DHT22;4781;48.776;9.200;2024-03-08T10:45:39;5.20;99.90
9486;DHT22;4781;48.776;9.200;2024-03-08T10:48:29;5.30;99.90
9486;DHT22;4781;48.776;9.200;2024-03-08T10:51:05;5.40;99.90
9486;DHT22;4781;48.776;9.200;2024-03-08T10:53:35;5.30;99.90
9486;DHT22;4781;48.776;9.200;2024-03-08T10:56:05;5.40;99.90
9486;DHT22;4781;48.776;9.200;2024-03-08T10:58:37;5.40;99.90
9486;DHT22;4781;48.776;9.200;2024-03-08T11:01:05;5.40;99.90
9486;DHT22;4781;48.776;9.200;2024-03-08T11:06:19;5.40;99.90
9486;DHT22;4781;48.776;9.200;2024-03-08T11:08:50;5.50;99.90
9486;DHT22;4781;48.776;9.200;2024-03-08T11:11:27;5.60;99.90
9486;DHT22;4781;48.776;9.200;2024-03-08T11:14:02;5.60;99.90
9486;DHT22;4781;48.776;9.200;2024-03-08T11:21:43;6.00;99.90
9486;DHT22;4781;48.776;9.200;2024-03-08T11:24:13;6.00;99.90
9486;DHT22;4781;48.776;9.200;2024-03-08T11:26:45;6.10;99.90
9486;DHT22;4781;48.776;9.200;2024-03-08T11:32:12;6.10;99.90
9486;DHT22;4781;48.776;9.200;2024-03-08T11:34:47;6.30;99.90
9486;DHT22;4781;48.776;9.200;2024-03-08T11:37:20;6.30;99.90
9486;DHT22;4781;48.776;9.200;2024-03-08T11:39:52;6.50;99.90
9486;DHT22;4781;48.776;9.200;2024-03-08T11:42:26;6.50;99.90
9486;DHT22;4781;48.776;9.200;2024-03-08T11:44:54;6.70;99.90
9486;DHT22;4781;48.776;9.200;2024-03-08T11:47:23;6.80;99.90
9486;DHT22;4781;48.776;9.200;2024-03-08T11:49:52;6.90;99.90
9486;DHT22;4781;48.776;9.200;2024-03-08T11:52:21;7.00;99.90
9486;DHT22;4781;48.776;9.200;2024-03-08T11:54:54;7.40;99.90
9486;DHT22;4781;48.776;9.200;2024-03-08T11:57:24;7.60;99.90
9486;DHT22;4781;48.776;9.200;2024-03-08T11:59:53;7.50;99.90
9486;DHT22;4781;48.776;9.200;2024-03-08T12:02:27;7.70;99.90
9486;DHT22;4781;48.776;9.200;2024-03-08T12:04:58;8.10;99.90
9486;DHT22;4781;48.776;9.200;2024-03-08T12:07:27;8.20;99.90
9486;DHT22;4781;48.776;9.200;2024-03-08T12:10:17;8.10;99.90
9486;DHT22;4781;48.776;9.200;2024-03-08T12:12:49;8.40;99.90
9486;DHT22;4781;48.776;9.200;2024-03-08T12:15:23;8.40;99.90
9486;DHT22;4781;48.776;9.200;2024-03-08T12:17:53;8.40;99.90
9486;DHT22;4781;48.776;9.200;2024-03-08T12:20:25;8.40;99.90
9486;DHT22;4781;48.776;9.200;2024-03-08T12:22:56;8.40;99.90
9486;DHT22;4781;48.776;9.200;2024-03-08T12:25:33;8.40;99.90
9486;DHT22;4781;48.776;9.200;2024-03-08T12:28:12;8.40;99.90
9486;DHT22;4781;48.776;9.200;2024-03-08T12:30:51;8.30;99.90
9486;DHT22;4781;48.776;9.200;2024-03-08T12:33:22;8.40;99.90
9486;DHT22;4781;48.776;9.200;2024-03-08T12:35:52;8.50;99.90
9486;DHT22;4781;48.776;9.200;2024-03-08T12:38:22;8.30;99.90
9486;DHT22;4781;48.776;9.200;2024-03-08T12:40:58;8.40;99.90
9486;DHT22;4781;48.776;9.200;2024-03-08T12:43:27;8.40;99.90
9486;DHT22;4781;48.776;9.200;2024-03-08T12:45:57;8.50;99.90
9486;DHT22;4781;48.776;9.200;2024-03-08T12:48:25;8.50;99.90
9486;DHT22;4781;48.776;9.200;2024-03-08T12:50:53;8.60;99.90
9486;DHT22;4781;48.776;9.200;2024-03-08T12:53:23;8.70;99.90
9486;DHT22;4781;48.776;9.200;2024-03-08T12:55:53;8.70;99.90
9486;DHT22;4781;48.776;9.200;2024-03-08T12:58:23;8.60;99.90
9486;DHT22;4781;48.776;9.200;2024-03-08T13:00:52;8.60;99.90
9486;DHT22;4781;48.776;9.200;2024-03-08T13:03:21;8.50;99.90
9486;DHT22;4781;48.776;9.200;2024-03-08T13:05:49;8.60;99.90
9486;DHT22;4781;48.776;9.200;2024-03-08T13:08:17;8.60;99.90
9486;DHT22;4781;48.776;9.200;2024-03-08T13:10:47;8.70;99.90
9486;DHT22;4781;48.776;9.200;2024-03-08T13:13:17;8.70;99.90
9486;DHT22;4781;48.776;9.200;2024-03-08T13:15:46;8.80;99.90
9486;DHT22;4781;48.776;9.200;2024-03-08T13:18:15;8.80;99.90
9486;DHT22;4781;48.776;9.200;2024-03-08T13:20:44;8.90;99.90
9486;DHT22;4781;48.776;9.200;2024-03-08T13:23:14;8.90;99.90
9486;DHT22;4781;48.776;9.200;2024-03-08T13:25:44;9.00;99.90
9486;DHT22;4781;48.776;9.200;2024-03-08T13:28:14;9.10;99.90
9486;DHT22;4781;48.776;9.200;2024-03-08T13:30:43;9.00;99.90
9486;DHT22;4781;48.776;9.200;2024-03-08T13:33:12;9.10;99.90
9486;DHT22;4781;48.776;9.200;2024-03-08T13:35:41;9.10;99.90
9486;DHT22;4781;48.776;9.200;2024-03-08T13:38:09;9.10;99.90
9486;DHT22;4781;48.776;9.200;2024-03-08T13:40:39;8.90;99.90
9486;DHT22;4781;48.776;9.200;2024-03-08T13:43:08;9.00;99.90
9486;DHT22;4781;48.776;9.200;2024-03-08T13:45:37;8.90;99.90
9486;DHT22;4781;48.776;9.200;2024-03-08T13:48:05;9.00;99.90
9486;DHT22;4781;48.776;9.200;2024-03-08T13:50:35;9.20;99.90
9486;DHT22;4781;48.776;9.200;2024-03-08T13:53:04;9.40;99.90
9486;DHT22;4781;48.776;9.200;2024-03-08T13:55:32;9.50;99.90
9486;DHT22;4781;48.776;9.200;2024-03-08T13:58:01;9.60;99.90
9486;DHT22;4781;48.776;9.200;2024-03-08T14:00:29;9.60;99.90
9486;DHT22;4781;48.776;9.200;2024-03-08T14:02:59;9.70;99.90
9486;DHT22;4781;48.776;9.200;2024-03-08T14:05:29;9.60;99.90
9486;DHT22;4781;48.776;9.200;2024-03-08T14:08:01;9.50;99.90
9486;DHT22;4781;48.776;9.200;2024-03-08T14:10:30;9.20;99.90
9486;DHT22;4781;48.776;9.200;2024-03-08T14:12:58;9.30;99.90
9486;DHT22;4781;48.776;9.200;2024-03-08T14:15:27;9.30;99.90
9486;DHT22;4781;48.776;9.200;2024-03-08T14:17:56;9.20;99.90
9486;DHT22;4781;48.776;9.200;2024-03-08T14:20:25;9.30;99.90
9486;DHT22;4781;48.776;9.200;2024-03-08T14:22:54;9.30;99.90
9486;DHT22;4781;48.776;9.200;2024-03-08T14:25:23;9.20;99.90
9486;DHT22;4781;48.776;9.200;2024-03-08T14:27:53;9.40;99.90
9486;DHT22;4781;48.776;9.200;2024-03-08T14:30:25;9.40;99.90
9486;DHT22;4781;48.776;9.200;2024-03-08T14:33:04;9.40;99.90
9486;DHT22;4781;48.776;9.200;2024-03-08T14:35:35;9.40;99.90
9486;DHT22;4781;48.776;9.200;2024-03-08T14:38:03;9.60;99.90
9486;DHT22;4781;48.776;9.200;2024-03-08T14:40:34;9.60;99.90
9486;DHT22;4781;48.776;9.200;2024-03-08T14:43:03;9.70;99.90
9486;DHT22;4781;48.776;9.200;2024-03-08T14:45:31;9.70;99.90
9486;DHT22;4781;48.776;9.200;2024-03-08T14:48:01;9.80;99.90
9486;DHT22;4781;48.776;9.200;2024-03-08T14:50:31;9.80;99.90
9486;DHT22;4781;48.776;9.200;2024-03-08T14:52:59;9.80;99.90
9486;DHT22;4781;48.776;9.200;2024-03-08T14:55:29;10.00;99.90
9486;DHT22;4781;48.776;9.200;2024-03-08T14:57:58;10.10;99.90
9486;DHT22;4781;48.776;9.200;2024-03-08T15:00:26;10.00;99.90
9486;DHT22;4781;48.776;9.200;2024-03-08T15:02:56;10.20;99.90
9486;DHT22;4781;48.776;9.200;2024-03-08T15:05:25;10.30;99.90
9486;DHT22;4781;48.776;9.200;2024-03-08T15:07:54;10.30;99.90
9486;DHT22;4781;48.776;9.200;2024-03-08T15:10:22;10.40;99.90
9486;DHT22;4781;48.776;9.200;2024-03-08T15:12:52;10.50;99.90
9486;DHT22;4781;48.776;9.200;2024-03-08T15:15:22;10.60;99.90
9486;DHT22;4781;48.776;9.200;2024-03-08T15:17:51;10.50;99.90
9486;DHT22;4781;48.776;9.200;2024-03-08T15:20:21;10.60;99.90
9486;DHT22;4781;48.776;9.200;2024-03-08T15:22:54;10.70;99.90
9486;DHT22;4781;48.776;9.200;2024-03-08T15:25:25;10.80;99.90
9486;DHT22;4781;48.776;9.200;2024-03-08T15:27:53;10.70;99.30
9486;DHT22;4781;48.776;9.200;2024-03-08T15:30:24;10.80;99.90
9486;DHT22;4781;48.776;9.200;2024-03-08T15:32:57;10.80;98.30
9486;DHT22;4781;48.776;9.200;2024-03-08T15:35:27;10.70;99.20
9486;DHT22;4781;48.776;9.200;2024-03-08T15:37:55;10.80;99.00
9486;DHT22;4781;48.776;9.200;2024-03-08T15:40:25;10.80;99.60
9486;DHT22;4781;48.776;9.200;2024-03-08T15:42:57;10.80;98.80
9486;DHT22;4781;48.776;9.200;2024-03-08T15:45:26;10.90;99.90
9486;DHT22;4781;48.776;9.200;2024-03-08T15:47:54;11.00;99.30
9486;DHT22;4781;48.776;9.200;2024-03-08T15:50:23;11.00;99.00
9486;DHT22;4781;48.776;9.200;2024-03-08T15:52:51;11.00;99.60
9486;DHT22;4781;48.776;9.200;2024-03-08T15:55:20;11.00;99.90
9486;DHT22;4781;48.776;9.200;2024-03-08T15:57:53;11.00;99.60
9486;DHT22;4781;48.776;9.200;2024-03-08T16:00:22;11.00;98.60
9486;DHT22;4781;48.776;9.200;2024-03-08T16:03:04;10.90;98.00
9486;DHT22;4781;48.776;9.200;2024-03-08T16:05:35;10.90;99.20
9486;DHT22;4781;48.776;9.200;2024-03-08T16:08:04;10.90;98.90
9486;DHT22;4781;48.776;9.200;2024-03-08T16:10:34;10.80;99.00
9486;DHT22;4781;48.776;9.200;2024-03-08T16:13:02;10.70;98.50
9486;DHT22;4781;48.776;9.200;2024-03-08T16:15:32;10.70;98.70
9486;DHT22;4781;48.776;9.200;2024-03-08T16:18:01;10.60;98.90
9486;DHT22;4781;48.776;9.200;2024-03-08T16:20:31;10.60;98.90
9486;DHT22;4781;48.776;9.200;2024-03-08T16:23:00;10.50;99.10
9486;DHT22;4781;48.776;9.200;2024-03-08T16:25:29;10.40;99.90
9486;DHT22;4781;48.776;9.200;2024-03-08T16:27:58;10.40;99.90
9486;DHT22;4781;48.776;9.200;2024-03-08T16:30:26;10.30;98.80
9486;DHT22;4781;48.776;9.200;2024-03-08T16:32:56;10.20;98.10
9486;DHT22;4781;48.776;9.200;2024-03-08T16:35:25;10.10;98.70
9486;DHT22;4781;48.776;9.200;2024-03-08T16:37:53;10.10;98.40
9486;DHT22;4781;48.776;9.200;2024-03-08T16:40:22;10.00;98.10
9486;DHT22;4781;48.776;9.200;2024-03-08T16:42:51;10.00;98.80
9486;DHT22;4781;48.776;9.200;2024-03-08T16:45:20;9.90;99.50